Canoga Park, CA (91303)

12:38 PM PDT on March 28, 2017 (GMT -0700)
Canoga Park | | Change Station
Active Advisory: Wind Advisory Active Notice: Public Information Statement

Elev 817 ft 34.20 °N, 118.61 °W | Updated 5 minutes ago

Clear
Clear
78.8 °F
Feels Like 78 °F
N
2.7
Wind Variable Wind from East

Today
High -- | Low -- °F
--% Chance of Precip.
Yesterday
High -- | Low -- °F
Precip. -- in
Pressure 30.01 in
Visibility 10.0 miles
Clouds Clear
Heat Index 78 °F
Dew Point 33 °F
Humidity 19%
Rainfall 0.00 in
Snow Depth Not available.
6:46 AM 7:12 PM
New Moon, 1% visible
METAR KVNY 281851Z 01019G28KT 10SM CLR 23/M05 A3003 RMK AO2 PK WND 01029/1829 SLP161 T02331050
Pressure 30.01 in
Visibility 10.0 miles
Clouds Clear
Heat Index 78 °F
Dew Point 33 °F
Humidity 19%
Rainfall 0.00 in
Snow Depth Not available.
6:46 AM 7:12 PM
New Moon, 1% visible
METAR KVNY 281851Z 01019G28KT 10SM CLR 23/M05 A3003 RMK AO2 PK WND 01029/1829 SLP161 T02331050

Get Your Daily Forecast Email!

Thanks for signing up!

Be on the lookout for a verification email in your inbox.

You'll start receiving severe weather alerts in your inbox..

×

10-Day Weather Forecast

Almanac

Astronomy

Mar. 28, 2017 Rise Set
Actual Time
Civil Twilight
Nautical Twilight
Astronomical Twilight
Moon
Length of Visible Light
Length of Day
Tomorrow will be .
, % of the Moon is Illuminated

Today's Extremes

State Highs State Lows

Community

WunderPhotos

Upload Photos

1,962,540 photos uploaded!

WunderBlog® & News

Nearby

Air Quality

  Air Quality AQ Index Pollutant
Not available.

Snow Depth

Station Depth Elevation

Earthquake Activity

City Distance Mag. Time & Date
Minimum magnitude displayed is 2.5.

Earthquake Activity

City Distance Mag. Time & Date
Minimum magnitude displayed is 2.5.

Coastal Water Temperatures

Place Temperature

Stations

Nearby Weather Stations

Station Location Temp. Windchill Dew Point Humidity Wind Precip. Elev Updated Type
                   

Watches & Warnings

Wind Advisory
Issued: 9:07 AM PDT Mar. 28, 2017 – National Weather Service

... Wind Advisory remains in effect until 2 PM PDT this
afternoon...

* winds and timing... areas of north to northeast winds 20 to 30
mph with gusts to 45 mph will continue through the early
afternoon hours, then will begin to diminish. Winds will be a
bit stronger in the Santa Monica Mountains, with gusts to 50
mph possible.


* Impacts... cross winds can make driving difficult, especially
for drivers of high profile vehicles and vehicles towing
trailers.

Precautionary/preparedness actions...

When driving, use extra caution. Be prepared for sudden gusty
cross winds.